PTAO2: Poteau River, Poteau, OK

                                SHEF ID:       PTAO2     Poteau River at Poteau, OK
STATION TYPE:
Regulating: Stage = 20.00, Flow = 7395

PRECIP STAGE RIV-FLOW VOLTAGE BAT-LOAD
in ft cfs volt volt
Ccp-Rev Ccp-Rev Ccp-Rev Ccp-Rev Ccp-Rev
(America/Chicago)
04/29 00:00 0.00 12.43 3274 12.89 12.41
04/29 01:00 0.00 12.97 3545 12.87 12.40
04/29 02:00 0.00 13.43 3783 12.86 12.39
04/29 03:00 0.00 13.83 3996 12.84 12.37
04/29 04:00 0.00 14.20 4196 12.83 12.36
04/29 05:00 0.00 14.49 4356 12.82 12.34
04/29 06:00 0.00 14.66 4451 12.80 12.33
04/29 07:00 0.00 14.78 4521 ---- ----
04/29 08:00 0.00 14.88 4581 13.16 12.53
04/29 09:00 0.00 14.92 4604 14.24 13.11
04/29 10:00 0.00 14.94 4616 14.17 13.16
04/29 11:00 0.00 14.95 4622 13.66 13.10
04/29 12:00 0.00 14.94 4616 13.47 12.99
04/29 13:00 0.00 14.91 4598 13.41 12.88
04/29 14:00 0.00 14.87 4575 13.41 12.86
04/29 15:00 0.00 14.81 4539 13.44 12.88
04/29 16:00 0.00 14.76 4510 13.38 12.85
04/29 17:00 0.00 14.71 4480 13.36 12.82
04/29 18:00 0.00 14.66 4451 13.43 12.83
04/29 19:00 0.00 14.58 4406 13.53 12.87
04/29 20:00 0.00 14.52 4373 13.26 12.84
04/29 21:00 0.00 14.46 4339 13.08 12.64
04/29 22:00 0.00 14.39 4301 12.99 12.53
04/29 23:00 0.00 14.29 4246 12.93 12.47
Data processed at Thu 30Apr2026 04:48 GMT

NOTICE: If you are parsing this page

Please convert to using our Data API. Starting early 2026 we will be migrating to: https://water.usace.army.mil with modern pages rendered in JavaScript. When this migration completes you will no longer be able to scrape this page! CWMSDataAPI (CDA)

Timeseries IDs (TSIDs)

TSIDs used from left to right in the data table
POTE.Precip-Inc.Total.1Hour.1Hour.Ccp-Rev
POTE.Stage.Inst.1Hour.0.Ccp-Rev
POTE.Flow.Inst.1Hour.0.Ccp-Rev
POTE.Volt-Battery.Inst.1Hour.0.Ccp-Rev
POTE.Volt-Battery Load.Inst.1Hour.0.Ccp-Rev

                            

All information presented herein is the property of the government of the United States of America and may be revised or deleted at any time without prior notice. Dissemination of this information without the expressed written consent of the Public Affairs Office, Tulsa District U.S. Army Corps of Engineers is strictly prohibited. These data are gathered electronically and, as presented, have NOT undergone any form of quality control. These data are NOT guaranteed to be valid or correct.